Time;durP1;ratioP1;P1;durP2;ratioP2;P2;SDS_P1;SDS_P2;PMS_P1;PMS_P2;Temp;Humidity;BMP_temperature;BMP_pressure;BME280_temperature;BME280_humidity;BME280_pressure;Samples;Min_cycle;Max_cycle;Signal;HPM_P1;HPM_P2
2023/12/17 00:01:06;;;;;;;1999.90;999.90;;;8.40;21.90;;;;;;4992628;28;20413;-71
2023/12/17 00:03:32;;;;;;;1999.90;999.90;;;8.40;21.20;;;;;;4992671;28;20618;-70
2023/12/17 00:05:57;;;;;;;1999.90;999.90;;;8.40;25.70;;;;;;4992676;28;20171;-70
2023/12/17 00:08:23;;;;;;;1999.90;999.90;;;8.40;19.00;;;;;;4992401;28;20215;-70
2023/12/17 00:10:49;;;;;;;1999.90;999.90;;;8.40;12.10;;;;;;4992327;28;20199;-71
2023/12/17 00:13:16;;;;;;;1999.90;999.90;;;8.40;24.70;;;;;;4992604;28;20217;-70
2023/12/17 00:15:42;;;;;;;1999.90;999.90;;;8.40;18.90;;;;;;4992573;28;20931;-70
2023/12/17 00:18:07;;;;;;;1999.90;999.90;;;8.40;17.60;;;;;;4992451;28;20465;-70
2023/12/17 00:20:33;;;;;;;1999.90;999.90;;;8.40;11.60;;;;;;4992264;28;20257;-70
2023/12/17 00:22:59;;;;;;;1999.90;999.90;;;8.60;21.90;;;;;;4992391;28;20182;-71
2023/12/17 00:25:24;;;;;;;1999.90;999.90;;;8.40;25.40;;;;;;4992692;28;20233;-70
2023/12/17 00:27:50;;;;;;;1999.90;999.90;;;8.10;17.90;;;;;;4992404;28;20198;-69
2023/12/17 00:30:15;;;;;;;1999.90;999.90;;;8.40;24.00;;;;;;4992141;28;20620;-70
2023/12/17 00:32:41;;;;;;;1999.90;999.90;;;8.40;41.10;;;;;;4992329;28;20174;-71
2023/12/17 00:35:07;;;;;;;1999.90;999.90;;;8.50;39.20;;;;;;4992408;28;20237;-70
2023/12/17 00:37:32;;;;;;;1999.90;999.90;;;8.30;76.40;;;;;;4992463;28;20258;-71
2023/12/17 00:39:58;;;;;;;1999.90;999.90;;;8.60;27.50;;;;;;4992189;28;20826;-70
2023/12/17 00:42:24;;;;;;;1999.90;999.90;;;8.60;12.20;;;;;;4992228;28;20205;-69
2023/12/17 00:44:49;;;;;;;1999.90;999.90;;;8.60;11.00;;;;;;4992227;28;20192;-71
2023/12/17 00:47:15;;;;;;;1999.90;999.90;;;8.60;24.90;;;;;;4992429;28;20181;-70
2023/12/17 00:49:40;;;;;;;1999.90;999.90;;;8.60;10.30;;;;;;4991936;28;20201;-70
2023/12/17 00:52:06;;;;;;;1999.90;999.90;;;8.50;15.00;;;;;;4992381;28;20203;-70
2023/12/17 00:54:31;;;;;;;1999.90;999.90;;;8.50;26.40;;;;;;4996188;28;20170;-70
2023/12/17 00:56:57;;;;;;;1999.90;999.90;;;8.50;32.70;;;;;;4996022;28;20182;-69
2023/12/17 00:59:23;;;;;;;1999.90;999.90;;;8.60;24.80;;;;;;4995813;28;20193;-70
2023/12/17 01:01:48;;;;;;;1999.90;999.90;;;8.60;19.50;;;;;;4996071;28;20170;-70
2023/12/17 01:04:14;;;;;;;1999.90;999.90;;;8.50;39.30;;;;;;4995941;28;20182;-70
2023/12/17 01:06:39;;;;;;;1999.90;999.90;;;8.60;50.20;;;;;;4995981;28;20264;-70
2023/12/17 01:09:05;;;;;;;1999.90;999.90;;;8.50;39.30;;;;;;4995489;28;20213;-70
2023/12/17 01:11:30;;;;;;;1999.90;999.90;;;8.60;44.50;;;;;;4995789;28;20252;-70
2023/12/17 01:13:56;;;;;;;1999.90;999.90;;;8.60;39.40;;;;;;4995799;28;20589;-71
2023/12/17 01:16:22;;;;;;;1999.90;999.90;;;8.60;48.90;;;;;;4995767;28;20689;-71
2023/12/17 01:18:47;;;;;;;1999.90;999.90;;;8.50;57.00;;;;;;4995363;28;20334;-70
2023/12/17 01:21:13;;;;;;;1999.90;999.90;;;8.40;72.60;;;;;;4995632;28;20171;-70
2023/12/17 01:23:38;;;;;;;1999.90;999.90;;;8.50;82.50;;;;;;4995445;28;20627;-70
2023/12/17 01:26:05;;;;;;;1999.90;999.90;;;8.40;81.60;;;;;;4995622;28;20181;-70
2023/12/17 01:28:30;;;;;;;1999.90;999.90;;;8.40;91.90;;;;;;4995394;28;20193;-70
2023/12/17 01:30:56;;;;;;;1999.90;999.90;;;8.30;98.30;;;;;;4995167;28;20827;-71
2023/12/17 01:33:21;;;;;;;1999.90;999.90;;;8.40;99.90;;;;;;4995351;28;20246;-69
2023/12/17 01:35:47;;;;;;;1999.90;999.90;;;8.40;99.90;;;;;;4995432;28;20174;-69
2023/12/17 01:38:13;;;;;;;1999.90;999.90;;;8.40;99.90;;;;;;4995173;28;20196;-70
2023/12/17 01:40:39;;;;;;;1999.90;999.90;;;8.30;99.90;;;;;;4995205;28;20210;-70
2023/12/17 01:43:08;;;;;;;1999.90;999.90;;;8.30;99.90;;;;;;4995070;28;20508;-70
2023/12/17 01:45:34;;;;;;;1999.90;999.90;;;8.20;99.90;;;;;;4995236;28;20421;-69
2023/12/17 01:48:01;;;;;;;1999.90;999.90;;;7.80;99.90;;;;;;4994985;28;20464;-70
2023/12/17 01:50:27;;;;;;;1999.90;999.90;;;8.10;99.90;;;;;;4994862;28;20417;-71
2023/12/17 01:52:54;;;;;;;1999.90;999.90;;;8.10;99.90;;;;;;4994931;28;20411;-70
2023/12/17 01:55:20;;;;;;;1999.90;999.90;;;8.00;99.90;;;;;;4995235;28;20838;-70
2023/12/17 01:57:46;;;;;;;1999.90;999.90;;;8.00;99.90;;;;;;4994885;28;20456;-70
2023/12/17 02:00:12;;;;;;;1999.90;999.90;;;7.90;99.90;;;;;;4994740;28;20936;-69
2023/12/17 02:02:38;;;;;;;1999.90;999.90;;;7.90;99.90;;;;;;4994780;28;20650;-70
2023/12/17 02:05:05;;;;;;;1999.90;999.90;;;7.90;99.90;;;;;;4994166;28;20408;-70
2023/12/17 02:07:32;;;;;;;1999.90;999.90;;;7.90;99.90;;;;;;4994591;28;20265;-71
2023/12/17 02:09:57;;;;;;;1999.90;999.90;;;7.90;99.90;;;;;;4994507;28;20413;-71
2023/12/17 02:12:27;;;;;;;1999.90;999.90;;;8.00;99.90;;;;;;4994569;28;21036;-71
2023/12/17 02:14:53;;;;;;;1999.90;999.90;;;8.00;99.90;;;;;;4994630;28;20175;-70
2023/12/17 02:17:28;;;;;;;1999.90;999.90;;;7.90;99.90;;;;;;4994559;28;20540;-70
2023/12/17 02:19:53;;;;;;;1999.90;999.90;;;7.70;99.90;;;;;;4994326;28;20455;-71
2023/12/17 02:22:20;;;;;;;1999.90;999.90;;;7.80;99.90;;;;;;4994395;28;20460;-70
2023/12/17 02:24:45;;;;;;;1999.90;999.90;;;7.90;99.90;;;;;;4994464;28;20167;-71
2023/12/17 02:27:11;;;;;;;1999.90;999.90;;;7.80;99.90;;;;;;4994417;28;20460;-70
2023/12/17 02:29:38;;;;;;;1999.90;999.90;;;7.60;99.90;;;;;;4994115;28;20196;-71
2023/12/17 02:32:04;;;;;;;1999.90;999.90;;;7.80;99.90;;;;;;4994339;28;20288;-71
2023/12/17 02:34:31;;;;;;;1999.90;999.90;;;7.70;99.90;;;;;;4994280;28;20397;-71
2023/12/17 02:36:56;;;;;;;1999.90;999.90;;;7.80;99.90;;;;;;4994269;28;20412;-71
2023/12/17 02:39:22;;;;;;;1999.90;999.90;;;7.80;99.90;;;;;;4994037;28;20920;-71
2023/12/17 02:41:47;;;;;;;1999.90;999.90;;;7.80;99.90;;;;;;4994182;28;20539;-71
2023/12/17 02:44:13;;;;;;;1999.90;999.90;;;7.90;99.90;;;;;;4994003;28;20658;-71
2023/12/17 02:46:38;;;;;;;1999.90;999.90;;;7.80;99.90;;;;;;4994120;28;20182;-71
2023/12/17 02:49:04;;;;;;;1999.90;999.90;;;7.80;99.90;;;;;;4993731;28;20189;-71
2023/12/17 02:51:31;;;;;;;1999.90;999.90;;;7.80;99.90;;;;;;4993868;28;20194;-70
2023/12/17 02:53:57;;;;;;;1999.90;999.90;;;7.80;99.90;;;;;;4993831;28;20232;-71
2023/12/17 02:56:22;;;;;;;1999.90;999.90;;;7.80;99.90;;;;;;4993866;28;20807;-71
2023/12/17 02:58:48;;;;;;;1999.90;999.90;;;7.80;99.90;;;;;;4993498;28;20213;-71
2023/12/17 03:01:13;;;;;;;1999.90;999.90;;;7.90;99.90;;;;;;4993763;28;20514;-71
2023/12/17 03:03:39;;;;;;;1999.90;999.90;;;7.80;99.90;;;;;;4993859;28;20265;-71
2023/12/17 03:06:05;;;;;;;1999.90;999.90;;;7.70;99.90;;;;;;4993658;28;20587;-71
2023/12/17 03:08:30;;;;;;;1999.90;999.90;;;7.90;99.90;;;;;;4993529;28;20217;-70
2023/12/17 03:10:56;;;;;;;1999.90;999.90;;;7.90;99.90;;;;;;4993264;28;20205;-69
2023/12/17 03:13:21;;;;;;;1999.90;999.90;;;8.00;99.90;;;;;;4993382;28;20169;-71
2023/12/17 03:15:47;;;;;;;1999.90;999.90;;;8.20;99.90;;;;;;4992726;28;20177;-71
2023/12/17 03:18:12;;;;;;;1999.90;999.90;;;7.90;99.90;;;;;;4993417;28;20190;-71
2023/12/17 03:20:38;;;;;;;1999.90;999.90;;;8.10;99.90;;;;;;4993234;28;20170;-70
2023/12/17 03:23:03;;;;;;;1999.90;999.90;;;8.20;99.90;;;;;;4993394;28;20166;-71
2023/12/17 03:25:29;;;;;;;1999.90;999.90;;;8.00;99.90;;;;;;4993389;28;20675;-71
2023/12/17 03:27:55;;;;;;;1999.90;999.90;;;8.00;99.90;;;;;;4993183;28;20230;-70
2023/12/17 03:30:21;;;;;;;1999.90;999.90;;;8.00;99.90;;;;;;4993148;28;20630;-70
2023/12/17 03:32:47;;;;;;;1999.90;999.90;;;8.00;99.90;;;;;;4993202;28;20591;-71
2023/12/17 03:35:12;;;;;;;1999.90;999.90;;;8.00;99.90;;;;;;4993097;28;20425;-71
2023/12/17 03:37:38;;;;;;;1999.90;999.90;;;7.80;99.90;;;;;;4993069;28;20692;-70
2023/12/17 03:40:04;;;;;;;1999.90;999.90;;;7.90;99.90;;;;;;4993012;28;20208;-71
2023/12/17 03:42:30;;;;;;;1999.90;999.90;;;8.00;99.90;;;;;;4993027;28;20606;-71
2023/12/17 03:44:55;;;;;;;1999.90;999.90;;;8.00;99.90;;;;;;4993070;28;20433;-71
2023/12/17 03:47:21;;;;;;;1999.90;999.90;;;8.00;99.90;;;;;;4993151;28;20649;-71
2023/12/17 03:49:46;;;;;;;1999.90;999.90;;;8.10;99.90;;;;;;4992658;28;20276;-70
2023/12/17 03:52:12;;;;;;;1999.90;999.90;;;8.10;99.90;;;;;;4992732;28;20198;-71
2023/12/17 03:54:37;;;;;;;1999.90;999.90;;;8.00;99.90;;;;;;4992864;28;20168;-71
2023/12/17 03:57:03;;;;;;;1999.90;999.90;;;8.10;99.90;;;;;;4992761;28;20177;-71
2023/12/17 03:59:29;;;;;;;1999.90;999.90;;;8.00;99.90;;;;;;4992584;28;20260;-70
2023/12/17 04:01:54;;;;;;;1999.90;999.90;;;8.00;99.90;;;;;;4992708;28;20173;-69
2023/12/17 04:04:20;;;;;;;1999.90;999.90;;;8.00;99.90;;;;;;4992649;28;20177;-71
2023/12/17 04:06:46;;;;;;;1999.90;999.90;;;8.00;99.90;;;;;;4992722;28;20173;-72
2023/12/17 04:09:11;;;;;;;1999.90;999.90;;;8.00;99.90;;;;;;4992292;28;20213;-71
2023/12/17 04:11:37;;;;;;;1999.90;999.90;;;8.00;99.90;;;;;;4992467;28;20827;-72
2023/12/17 04:14:03;;;;;;;1999.90;999.90;;;7.90;99.90;;;;;;4992508;28;20630;-70
2023/12/17 04:16:28;;;;;;;1999.90;999.90;;;8.00;99.90;;;;;;4992572;28;20177;-71
2023/12/17 04:18:54;;;;;;;1999.90;999.90;;;7.90;99.90;;;;;;4992326;28;20186;-70
2023/12/17 04:21:20;;;;;;;1999.90;999.90;;;7.90;99.90;;;;;;4992532;28;20176;-71
2023/12/17 04:23:45;;;;;;;1999.90;999.90;;;7.90;99.90;;;;;;4992545;28;20189;-70
2023/12/17 04:26:11;;;;;;;1999.90;999.90;;;7.90;99.90;;;;;;4992535;28;20166;-71
2023/12/17 04:28:37;;;;;;;1999.90;999.90;;;7.80;99.90;;;;;;4995322;28;20197;-69
2023/12/17 04:31:03;;;;;;;1999.90;999.90;;;7.80;99.90;;;;;;4996272;28;20582;-70
2023/12/17 04:33:28;;;;;;;1999.90;999.90;;;7.80;99.90;;;;;;4996446;28;20583;-71
2023/12/17 04:35:54;;;;;;;1999.90;999.90;;;7.80;99.90;;;;;;4996483;28;20165;-71
2023/12/17 04:38:19;;;;;;;1999.90;999.90;;;7.80;99.90;;;;;;4996605;28;20189;-69
2023/12/17 04:40:46;;;;;;;1999.90;999.90;;;7.80;99.90;;;;;;4996257;28;20174;-70
2023/12/17 04:43:12;;;;;;;1999.90;999.90;;;7.80;99.90;;;;;;4996244;28;20186;-70
2023/12/17 04:45:37;;;;;;;1999.90;999.90;;;7.80;99.90;;;;;;4996313;28;20455;-70
2023/12/17 04:48:03;;;;;;;1999.90;999.90;;;8.10;99.90;;;;;;4996163;28;20237;-70
2023/12/17 04:50:29;;;;;;;1999.90;999.90;;;7.80;99.90;;;;;;4995979;28;20178;-69
2023/12/17 04:52:54;;;;;;;1999.90;999.90;;;7.80;99.90;;;;;;4996138;28;20582;-70
2023/12/17 04:55:20;;;;;;;1999.90;999.90;;;7.90;99.90;;;;;;4996050;28;20176;-70
2023/12/17 04:57:45;;;;;;;1999.90;999.90;;;7.90;99.40;;;;;;4996231;28;20189;-70
2023/12/17 05:00:11;;;;;;;1999.90;999.90;;;7.90;99.60;;;;;;4995830;28;20201;-70
2023/12/17 05:02:37;;;;;;;1999.90;999.90;;;7.90;91.70;;;;;;4995848;28;20270;-70
2023/12/17 05:05:04;;;;;;;1999.90;999.90;;;7.90;91.50;;;;;;4995945;28;20408;-70
2023/12/17 05:07:29;;;;;;;1999.90;999.90;;;7.80;99.90;;;;;;4995765;28;20435;-70
2023/12/17 05:09:55;;;;;;;1999.90;999.90;;;7.90;70.30;;;;;;4995707;28;20492;-70
2023/12/17 05:12:20;;;;;;;1999.90;999.90;;;7.70;24.70;;;;;;4995565;28;20269;-69
2023/12/17 05:14:46;;;;;;;1999.90;999.90;;;7.90;48.20;;;;;;4995812;28;20169;-70
2023/12/17 05:17:11;;;;;;;1999.90;999.90;;;7.70;40.30;;;;;;4995673;28;20173;-69
2023/12/17 05:19:37;;;;;;;1999.90;999.90;;;7.90;28.20;;;;;;4995490;28;20700;-70
2023/12/17 05:22:03;;;;;;;1999.90;999.90;;;7.80;45.10;;;;;;4995541;28;20170;-70
2023/12/17 05:24:28;;;;;;;1999.90;999.90;;;7.80;61.70;;;;;;4995500;28;20182;-70
2023/12/17 05:26:54;;;;;;;1999.90;999.90;;;7.90;64.00;;;;;;4995507;28;20174;-71
2023/12/17 05:29:19;;;;;;;1999.90;999.90;;;7.90;30.30;;;;;;4995238;28;20194;-70
2023/12/17 05:31:45;;;;;;;1999.90;999.90;;;7.70;6.90;;;;;;4995309;28;20228;-70
2023/12/17 05:34:11;;;;;;;1999.90;999.90;;;7.80;32.90;;;;;;4995349;28;20170;-71
2023/12/17 05:36:36;;;;;;;1999.90;999.90;;;7.80;15.50;;;;;;4995536;28;20189;-72
2023/12/17 05:39:02;;;;;;;1999.90;999.90;;;7.90;16.10;;;;;;4994039;28;20196;-69
2023/12/17 05:41:28;;;;;;;1999.90;999.90;;;7.80;1.00;;;;;;4995214;28;20174;-70
2023/12/17 05:43:53;;;;;;;1999.90;999.90;;;7.80;1.00;;;;;;4995203;28;20415;-70
2023/12/17 05:46:19;;;;;;;1999.90;999.90;;;7.80;1.00;;;;;;4995152;28;20185;-70
2023/12/17 05:48:44;;;;;;;1999.90;999.90;;;7.60;1.00;;;;;;4995204;28;20695;-72
2023/12/17 05:51:10;;;;;;;1999.90;999.90;;;7.80;1.00;;;;;;4994778;28;20217;-70
2023/12/17 05:53:36;;;;;;;1999.90;999.90;;;7.80;1.00;;;;;;4995033;28;20169;-70
2023/12/17 05:56:01;;;;;;;1999.90;999.90;;;7.80;1.00;;;;;;4995073;28;20525;-69
2023/12/17 05:58:27;;;;;;;1999.90;999.90;;;7.80;1.00;;;;;;4994866;28;20425;-70
2023/12/17 06:00:54;;;;;;;1999.90;999.90;;;7.70;1.00;;;;;;4994721;28;20178;-70
2023/12/17 06:03:19;;;;;;;1999.90;999.90;;;7.70;1.00;;;;;;4994903;28;20249;-70
2023/12/17 06:05:45;;;;;;;1999.90;999.90;;;7.60;1.00;;;;;;4994855;28;20445;-70
2023/12/17 06:08:11;;;;;;;1999.90;999.90;;;7.50;1.00;;;;;;4994596;28;20285;-71
2023/12/17 06:10:36;;;;;;;1999.90;999.90;;;7.50;5.80;;;;;;4994502;28;20677;-70
2023/12/17 06:13:02;;;;;;;1999.90;999.90;;;7.50;15.60;;;;;;4994866;28;20166;-70
2023/12/17 06:15:27;;;;;;;1999.90;999.90;;;7.50;1.00;;;;;;4994640;28;20626;-70
2023/12/17 06:17:53;;;;;;;1999.90;999.90;;;7.50;18.70;;;;;;4994616;28;20197;-71
2023/12/17 06:20:18;;;;;;;1999.90;999.90;;;7.50;8.20;;;;;;4994519;28;20260;-70
2023/12/17 06:22:44;;;;;;;1999.90;999.90;;;7.50;1.00;;;;;;4994502;28;20226;-70
2023/12/17 06:25:09;;;;;;;1999.90;999.90;;;7.60;9.00;;;;;;4994560;28;20602;-70
2023/12/17 06:27:36;;;;;;;1999.90;999.90;;;7.80;27.10;;;;;;4994419;28;20240;-71
2023/12/17 06:30:03;;;;;;;1999.90;999.90;;;7.60;1.00;;;;;;4994291;28;20173;-70
2023/12/17 06:32:28;;;;;;;1999.90;999.90;;;7.60;1.00;;;;;;4994176;28;20796;-70
2023/12/17 06:34:54;;;;;;;1999.90;999.90;;;7.60;1.00;;;;;;4994348;28;20420;-69
2023/12/17 06:37:19;;;;;;;1999.90;999.90;;;7.60;1.00;;;;;;4994298;28;20174;-71
2023/12/17 06:39:45;;;;;;;1999.90;999.90;;;7.60;1.00;;;;;;4993936;28;20194;-70
2023/12/17 06:42:11;;;;;;;1999.90;999.90;;;7.70;1.00;;;;;;4994158;28;20167;-71
2023/12/17 06:44:36;;;;;;;1999.90;999.90;;;7.80;1.00;;;;;;4994105;28;20170;-71
2023/12/17 06:47:02;;;;;;;1999.90;999.90;;;7.70;1.00;;;;;;4994074;28;20421;-71
2023/12/17 06:49:28;;;;;;;1999.90;999.90;;;7.70;1.00;;;;;;4993837;28;20193;-71
2023/12/17 06:51:54;;;;;;;1999.90;999.90;;;7.70;1.00;;;;;;4993678;28;20969;-71
2023/12/17 06:54:20;;;;;;;1999.90;999.90;;;7.50;1.00;;;;;;4993790;28;20229;-71
2023/12/17 06:56:46;;;;;;;1999.90;999.90;;;7.70;1.00;;;;;;4993776;28;20177;-71
2023/12/17 06:59:11;;;;;;;1999.90;999.90;;;7.70;1.00;;;;;;4993675;28;20951;-72
2023/12/17 07:01:37;;;;;;;1999.90;999.90;;;7.80;1.00;;;;;;4993768;28;20169;-71
2023/12/17 07:04:02;;;;;;;1999.90;999.90;;;7.80;1.00;;;;;;4993703;28;20174;-71
2023/12/17 07:06:30;;;;;;;1999.90;999.90;;;7.90;1.00;;;;;;4993692;28;20184;-70
2023/12/17 07:08:56;;;;;;;1999.90;999.90;;;7.90;1.00;;;;;;4993254;28;20667;-70
2023/12/17 07:11:22;;;;;;;1999.90;999.90;;;7.90;1.00;;;;;;4993516;28;20484;-70
2023/12/17 07:13:49;;;;;;;1999.90;999.90;;;7.90;1.00;;;;;;4993526;28;20166;-71
2023/12/17 07:16:22;;;;;;;1999.90;999.90;;;7.90;1.00;;;;;;4993633;28;20166;-71
2023/12/17 07:18:47;;;;;;;1999.90;999.90;;;8.00;1.00;;;;;;4993459;28;20842;-71
2023/12/17 07:21:13;;;;;;;1999.90;999.90;;;8.30;1.00;;;;;;4993387;28;20452;-71
2023/12/17 07:23:39;;;;;;;1999.90;999.90;;;7.90;1.00;;;;;;4993304;28;20202;-71
2023/12/17 07:26:04;;;;;;;1999.90;999.90;;;7.90;1.00;;;;;;4993373;28;20182;-70
2023/12/17 07:28:30;;;;;;;1999.90;999.90;;;7.80;1.00;;;;;;4993140;28;20185;-71
2023/12/17 07:30:55;;;;;;;1999.90;999.90;;;7.80;1.00;;;;;;4993001;28;20251;-71
2023/12/17 07:33:21;;;;;;;1999.90;999.90;;;7.90;1.00;;;;;;4993116;28;20166;-71
2023/12/17 07:35:46;;;;;;;1999.90;999.90;;;7.90;1.00;;;;;;4993098;28;20170;-70
2023/12/17 07:38:12;;;;;;;1999.90;999.90;;;7.90;1.00;;;;;;4993050;28;20554;-71
2023/12/17 07:40:39;;;;;;;1999.90;999.90;;;7.90;1.00;;;;;;4993013;28;20175;-71
2023/12/17 07:43:05;;;;;;;1999.90;999.90;;;7.90;1.00;;;;;;4992882;28;20177;-70
2023/12/17 07:45:32;;;;;;;1999.90;999.90;;;7.90;1.00;;;;;;4993033;28;20488;-71
2023/12/17 07:47:58;;;;;;;1999.90;999.90;;;7.90;1.00;;;;;;4992913;28;20425;-69
2023/12/17 07:50:24;;;;;;;1999.90;999.90;;;7.90;1.00;;;;;;4992676;28;20497;-69
2023/12/17 07:52:50;;;;;;;1999.90;999.90;;;8.00;1.00;;;;;;4992843;28;20280;-69
2023/12/17 07:55:15;;;;;;;1999.90;999.90;;;7.90;1.00;;;;;;4992902;28;20217;-69
2023/12/17 07:57:41;;;;;;;1999.90;999.90;;;7.90;19.60;;;;;;4992865;28;20179;-70
2023/12/17 08:00:11;;;;;;;1999.90;999.90;;;8.10;1.00;;;;;;4992635;28;20174;-69
2023/12/17 08:02:37;;;;;;;1999.90;999.90;;;8.10;1.00;;;;;;4992142;28;20184;-71
2023/12/17 08:05:05;;;;;;;1999.90;999.90;;;8.20;1.00;;;;;;4992746;28;20416;-71
2023/12/17 08:07:31;;;;;;;1999.90;999.90;;;7.90;15.80;;;;;;4992642;28;20823;-70
2023/12/17 08:09:58;;;;;;;1999.90;999.90;;;8.10;1.00;;;;;;4992672;28;20790;-70
2023/12/17 08:12:23;;;;;;;1999.90;999.90;;;8.10;1.00;;;;;;4992579;28;20515;-70
2023/12/17 08:14:49;;;;;;;1999.90;999.90;;;8.00;1.00;;;;;;4992663;28;20449;-71
2023/12/17 08:17:15;;;;;;;1999.90;999.90;;;8.10;1.00;;;;;;4992564;28;20546;-68
2023/12/17 08:19:42;;;;;;;1999.90;999.90;;;8.20;1.00;;;;;;4992737;28;20713;-69
2023/12/17 08:22:11;;;;;;;1999.90;999.90;;;8.20;1.00;;;;;;4992468;28;20253;-69
2023/12/17 08:24:36;;;;;;;1999.90;999.90;;;8.20;1.00;;;;;;4992559;28;20454;-69
2023/12/17 08:27:02;;;;;;;1999.90;999.90;;;8.30;1.00;;;;;;4992470;28;20759;-69
2023/12/17 08:29:29;;;;;;;1999.90;999.90;;;8.30;1.00;;;;;;4992112;28;20194;-68
2023/12/17 08:31:57;;;;;;;1999.90;999.90;;;8.20;1.00;;;;;;4992348;28;20494;-70
2023/12/17 08:34:29;;;;;;;1999.90;999.90;;;8.30;1.00;;;;;;4992382;28;20837;-69
2023/12/17 08:36:56;;;;;;;1999.90;999.90;;;8.30;1.00;;;;;;4992621;28;20435;-69
2023/12/17 08:39:23;;;;;;;1999.90;999.90;;;8.30;1.00;;;;;;4992249;28;20429;-71
2023/12/17 08:41:49;;;;;;;1999.90;999.90;;;8.50;1.00;;;;;;4992375;28;20415;-69
2023/12/17 08:44:19;;;;;;;1999.90;999.90;;;8.00;1.00;;;;;;4991715;28;20427;-69
2023/12/17 08:46:45;;;;;;;1999.90;999.90;;;8.10;1.00;;;;;;4991875;28;20412;-69
2023/12/17 08:49:11;;;;;;;1999.90;999.90;;;8.30;1.00;;;;;;4991899;28;20449;-69
2023/12/17 08:51:38;;;;;;;1999.90;999.90;;;8.50;1.00;;;;;;4991812;28;20453;-69
2023/12/17 08:54:03;;;;;;;1999.90;999.90;;;8.60;1.00;;;;;;4992648;28;20658;-69
2023/12/17 08:56:29;;;;;;;1999.90;999.90;;;8.60;1.00;;;;;;4992046;28;20423;-68
2023/12/17 08:58:55;;;;;;;1999.90;999.90;;;8.60;1.00;;;;;;4991918;28;20202;-69
2023/12/17 09:01:20;;;;;;;1999.90;999.90;;;8.70;1.00;;;;;;4991425;28;20799;-69
2023/12/17 09:03:46;;;;;;;1999.90;999.90;;;8.70;1.00;;;;;;4991907;28;20183;-69
2023/12/17 09:06:12;;;;;;;1999.90;999.90;;;8.70;1.00;;;;;;4992211;28;20550;-69
2023/12/17 09:08:37;;;;;;;1999.90;999.90;;;8.60;1.00;;;;;;4991819;28;20216;-69
2023/12/17 09:11:03;;;;;;;1999.90;999.90;;;;;;;;;;4992018;28;20193;-70
2023/12/17 09:13:30;;;;;;;1999.90;999.90;;;8.60;1.00;;;;;;4992918;28;20222;-69
2023/12/17 09:15:56;;;;;;;1999.90;999.90;;;8.60;1.00;;;;;;4995757;28;20416;-68
2023/12/17 09:18:21;;;;;;;1999.90;999.90;;;8.50;1.00;;;;;;4994747;28;20210;-72
2023/12/17 09:20:47;;;;;;;1999.90;999.90;;;8.50;1.00;;;;;;4994878;28;20453;-69
2023/12/17 09:23:13;;;;;;;1999.90;999.90;;;8.50;1.00;;;;;;4995528;28;20175;-69
2023/12/17 09:25:38;;;;;;;1999.90;999.90;;;8.60;1.00;;;;;;4995377;28;20178;-71
2023/12/17 09:28:04;;;;;;;1999.90;999.90;;;8.50;1.00;;;;;;4992413;28;20292;-69
2023/12/17 09:30:30;;;;;;;1999.90;999.90;;;8.70;1.60;;;;;;4994952;28;20224;-70
2023/12/17 09:32:55;;;;;;;1999.90;999.90;;;8.70;2.40;;;;;;4976872;28;20829;-69
2023/12/17 09:35:21;;;;;;;1999.90;999.90;;;8.70;1.50;;;;;;4976839;28;20209;-68
2023/12/17 09:37:47;;;;;;;1999.90;999.90;;;9.00;1.00;;;;;;4995145;28;20206;-69
2023/12/17 09:40:14;;;;;;;1999.90;999.90;;;8.70;13.60;;;;;;4995048;28;20184;-71
2023/12/17 09:42:43;;;;;;;1999.90;999.90;;;8.70;7.80;;;;;;4995267;28;20417;-69
2023/12/17 09:45:14;;;;;;;1999.90;999.90;;;8.50;13.20;;;;;;4995215;28;20837;-70
2023/12/17 09:47:40;;;;;;;1999.90;999.90;;;8.50;55.10;;;;;;4995310;28;20411;-69
2023/12/17 09:50:06;;;;;;;1999.90;999.90;;;8.50;30.70;;;;;;4994972;28;20434;-69
2023/12/17 09:52:36;;;;;;;1999.90;999.90;;;8.60;13.10;;;;;;4994984;28;20456;-70
2023/12/17 09:55:05;;;;;;;1999.90;999.90;;;8.60;1.00;;;;;;4995136;28;20413;-69
2023/12/17 09:57:30;;;;;;;1999.90;999.90;;;8.40;13.30;;;;;;4994858;28;20421;-68
2023/12/17 09:59:56;;;;;;;1999.90;999.90;;;8.60;1.00;;;;;;4994482;28;20413;-68
2023/12/17 10:02:21;;;;;;;1999.90;999.90;;;8.60;1.00;;;;;;4994896;28;20181;-69
2023/12/17 10:04:47;;;;;;;1999.90;999.90;;;8.60;1.00;;;;;;4994683;28;20634;-69
2023/12/17 10:07:13;;;;;;;1999.90;999.90;;;8.70;17.10;;;;;;4994794;28;20181;-70
2023/12/17 10:09:38;;;;;;;1999.90;999.90;;;8.50;22.90;;;;;;4994573;28;20226;-70
2023/12/17 10:12:05;;;;;;;1999.90;999.90;;;8.50;3.50;;;;;;4994661;28;20202;-70
2023/12/17 10:14:30;;;;;;;1999.90;999.90;;;8.40;1.00;;;;;;4994849;28;20181;-70
2023/12/17 10:16:59;;;;;;;1999.90;999.90;;;8.30;1.00;;;;;;4994679;28;20410;-70
2023/12/17 10:19:25;;;;;;;1999.90;999.90;;;8.30;1.00;;;;;;4994511;28;20202;-70
2023/12/17 10:21:51;;;;;;;1999.90;999.90;;;8.40;1.00;;;;;;4994673;28;20921;-70
2023/12/17 10:24:18;;;;;;;1999.90;999.90;;;8.40;1.00;;;;;;4994491;28;20409;-70
2023/12/17 10:26:45;;;;;;;1999.90;999.90;;;8.50;1.00;;;;;;4993657;28;20233;-71
2023/12/17 10:29:18;;;;;;;1999.90;999.90;;;8.60;1.00;;;;;;4994056;28;20454;-70
2023/12/17 10:31:45;;;;;;;1999.90;999.90;;;8.60;1.00;;;;;;4994228;28;20484;-71
2023/12/17 10:34:18;;;;;;;1999.90;999.90;;;8.50;1.00;;;;;;4989566;28;20404;-70
2023/12/17 10:36:46;;;;;;;1999.90;999.90;;;8.40;1.00;;;;;;4993587;28;20417;-71
2023/12/17 10:39:14;;;;;;;1999.90;999.90;;;8.50;1.00;;;;;;4993413;28;20427;-71
2023/12/17 10:41:41;;;;;;;1999.90;999.90;;;8.40;1.00;;;;;;4993542;28;20413;-71
2023/12/17 10:44:13;;;;;;;1999.90;999.90;;;8.50;1.00;;;;;;4993617;28;20415;-70
2023/12/17 10:46:43;;;;;;;1999.90;999.90;;;8.60;1.00;;;;;;4993968;28;20465;-70
2023/12/17 10:49:09;;;;;;;1999.90;999.90;;;8.80;1.00;;;;;;4993117;28;20520;-71
2023/12/17 10:51:40;;;;;;;1999.90;999.90;;;8.90;1.00;;;;;;4993783;28;20453;-70
2023/12/17 10:54:06;;;;;;;1999.90;999.90;;;9.00;1.00;;;;;;4993485;28;20446;-70
2023/12/17 10:56:37;;;;;;;1999.90;999.90;;;9.10;1.00;;;;;;4993098;28;20767;-71
2023/12/17 10:59:08;;;;;;;1999.90;999.90;;;9.50;1.00;;;;;;4993153;28;20430;-70
2023/12/17 11:01:37;;;;;;;1999.90;999.90;;;9.70;1.00;;;;;;4993526;28;20422;-71
2023/12/17 11:04:04;;;;;;;1999.90;999.90;;;9.60;1.00;;;;;;4992671;28;20985;-70
2023/12/17 11:06:30;;;;;;;1999.90;999.90;;;9.80;1.00;;;;;;4993548;28;20478;-70
2023/12/17 11:08:56;;;;;;;1999.90;999.90;;;9.80;1.00;;;;;;4992893;28;20467;-70
2023/12/17 11:11:22;;;;;;;1999.90;999.90;;;10.30;1.00;;;;;;4992844;28;20552;-71
2023/12/17 11:13:49;;;;;;;1999.90;999.90;;;10.50;1.00;;;;;;4993117;28;20183;-71
2023/12/17 11:16:28;;;;;;;1999.90;999.90;;;10.60;1.00;;;;;;4991242;28;20431;-70
2023/12/17 11:18:54;;;;;;;1999.90;999.90;;;11.10;1.00;;;;;;4985489;28;20508;-71
2023/12/17 11:21:21;;;;;;;1999.90;999.90;;;11.60;99.90;;;;;;4992413;28;20424;-71
2023/12/17 11:23:51;;;;;;;1999.90;999.90;;;12.10;99.90;;;;;;4992921;28;20175;-71
2023/12/17 11:26:18;;;;;;;1999.90;999.90;;;12.60;1.00;;;;;;4992475;28;20409;-71
2023/12/17 11:28:44;;;;;;;1999.90;999.90;;;12.90;99.90;;;;;;4992901;28;20435;-72
2023/12/17 11:31:11;;;;;;;1999.90;999.90;;;13.10;99.90;;;;;;4992367;28;20460;-71
2023/12/17 11:33:38;;;;;;;1999.90;999.90;;;13.20;99.90;;;;;;4992013;28;20414;-71
2023/12/17 11:36:05;;;;;;;1999.90;999.90;;;13.30;1.00;;;;;;4992740;28;20420;-71
2023/12/17 11:38:32;;;;;;;1999.90;999.90;;;13.50;99.90;;;;;;4992037;28;20435;-70
2023/12/17 11:40:57;;;;;;;1999.90;999.90;;;13.70;1.00;;;;;;4992085;28;20421;-71
2023/12/17 11:43:25;;;;;;;1999.90;999.90;;;14.10;1.00;;;;;;4992553;28;20436;-71
2023/12/17 11:45:51;;;;;;;1999.90;999.90;;;14.50;1.00;;;;;;4992535;28;20179;-71
2023/12/17 11:48:21;;;;;;;1999.90;999.90;;;15.10;1.00;;;;;;4992366;28;20810;-70
2023/12/17 11:50:48;;;;;;;1999.90;999.90;;;15.60;18.10;;;;;;4992231;28;21081;-71
2023/12/17 11:53:19;;;;;;;1999.90;999.90;;;15.90;14.10;;;;;;4992365;28;20948;-71
2023/12/17 11:55:46;;;;;;;1999.90;999.90;;;16.30;18.00;;;;;;4992002;28;20439;-71
2023/12/17 11:58:15;;;;;;;1999.90;999.90;;;16.70;16.20;;;;;;4992459;28;20432;-71
2023/12/17 12:00:42;;;;;;;1999.90;999.90;;;17.10;12.80;;;;;;4992272;28;20510;-70
2023/12/17 12:03:08;;;;;;;1999.90;999.90;;;17.30;8.40;;;;;;4992030;28;20411;-71
2023/12/17 12:05:34;;;;;;;1999.90;999.90;;;17.60;5.90;;;;;;4992405;28;20483;-71